METAR Data
IDs: Format: Raw Decoded Include TAF

Data at: 0230 UTC 24 Sep 2018

KA39 240215Z AUTO 00000KT 10SM CLR 31/11 A2978 RMK AO2
KA39 240155Z AUTO 25003KT 10SM CLR 33/12 A2978 RMK AO2
KA39 240135Z AUTO 23003KT 10SM CLR 33/11 A2978 RMK AO2
KA39 240115Z AUTO 25003KT 10SM CLR 34/09 A2978 RMK AO2
KA39 240055Z AUTO 25003KT 10SM CLR 35/09 A2978 RMK AO2
KA39 240035Z AUTO 24005KT 10SM CLR 36/06 A2978 RMK AO2
KA39 240015Z AUTO 24005KT 10SM CLR 36/06 A2978 RMK AO2
KA39 232355Z AUTO 24005KT 10SM CLR 36/07 A2979 RMK AO2
KA39 232335Z AUTO 22004KT 10SM CLR 36/04 A2979 RMK AO2
KA39 232315Z AUTO 18004KT 10SM CLR 37/04 A2980 RMK AO2
KA39 232255Z AUTO 18007KT 10SM CLR 38/04 A2980 RMK AO2
KA39 232235Z AUTO 13004KT 10SM CLR 38/04 A2980 RMK AO2
KA39 232215Z AUTO 11004KT 10SM CLR 38/04 A2981 RMK AO2
KA39 232155Z AUTO 10005KT 10SM CLR 37/04 A2982 RMK AO2
KA39 232135Z AUTO 07006KT 10SM CLR 38/04 A2983 RMK AO2
KA39 232115Z AUTO 16005KT 10SM CLR 37/03 A2984 RMK AO2
KA39 232055Z AUTO 13005KT 10SM CLR 37/03 A2985 RMK AO2
KA39 232035Z AUTO 15005KT 10SM CLR 37/05 A2986 RMK AO2
KA39 232015Z AUTO 12006KT 10SM CLR 36/05 A2987 RMK AO2
KA39 231955Z AUTO 10005KT 10SM CLR 36/07 A2989 RMK AO2
KA39 231935Z AUTO 15006KT 10SM CLR 36/06 A2990 RMK AO2
KA39 231915Z AUTO 14005KT 10SM CLR 35/08 A2991 RMK AO2
KA39 231855Z AUTO 15004KT 10SM CLR 35/08 A2992 RMK AO2
KA39 231835Z AUTO 13008KT 10SM CLR 34/08 A2992 RMK AO2
KA39 231815Z AUTO 14009KT 10SM CLR 34/08 A2993 RMK AO2
KA39 231755Z AUTO 13011KT 100V160 10SM CLR 34/08 A2994 RMK AO2
KA39 231735Z AUTO 15007KT 10SM CLR 33/08 A2995 RMK AO2
KA39 231715Z AUTO 11009KT 10SM CLR 33/08 A2995 RMK AO2
KA39 231655Z AUTO 11010KT 10SM CLR 33/08 A2995 RMK AO2
KA39 231635Z AUTO 09012KT 10SM CLR 32/08 A2995 RMK AO2
KA39 231615Z AUTO 11009KT 10SM CLR 31/09 A2995 RMK AO2
KA39 231555Z AUTO 11009KT 10SM CLR 31/09 A2995 RMK AO2
KA39 231535Z AUTO 35003KT 10SM CLR 26/13 A2995 RMK AO2
KA39 231515Z AUTO 00000KT 10SM CLR 24/14 A2995 RMK AO2
KA39 231455Z AUTO 33004KT 10SM CLR 23/14 A2994 RMK AO2
KA39 231435Z AUTO 00000KT 10SM CLR 22/14 A2994 RMK AO2
KA39 231415Z AUTO 00000KT 10SM CLR 21/14 A2994 RMK AO2
KA39 231355Z AUTO 00000KT 10SM CLR 20/13 A2993 RMK AO2
KA39 231335Z AUTO 00000KT 10SM CLR 20/13 A2992 RMK AO2
KA39 231315Z AUTO 00000KT 10SM CLR 22/12 A2992 RMK AO2
KA39 231255Z AUTO 09010KT 10SM CLR 26/10 A2991 RMK AO2
KA39 231235Z AUTO 09011KT 10SM CLR 27/10 A2990 RMK AO2
KA39 231215Z AUTO 09010KT 10SM CLR 26/10 A2990 RMK AO2
KA39 231155Z AUTO 00000KT 10SM CLR 21/13 A2990 RMK AO2
KA39 231135Z AUTO 08003KT 10SM CLR 21/13 A2990 RMK AO2
KA39 231115Z AUTO 00000KT 10SM CLR 21/13 A2990 RMK AO2
KA39 231055Z AUTO 00000KT 10SM CLR 21/12 A2990 RMK AO2
KA39 231035Z AUTO 26003KT 10SM CLR 22/13 A2990 RMK AO2
KA39 231015Z AUTO 34003KT 10SM CLR 21/13 A2990 RMK AO2
KA39 230955Z AUTO 20003KT 10SM CLR 22/13 A2990 RMK AO2
KA39 230935Z AUTO 00000KT 10SM CLR 24/11 A2989 RMK AO2
KA39 230915Z AUTO 11004KT 10SM CLR 25/07 A2989 RMK AO2
KA39 230850Z AUTO 12005KT 10SM CLR 25/07 A2989 RMK AO2
KA39 230835Z AUTO 10004KT 10SM CLR 24/08 A2990 RMK AO2
KA39 230815Z AUTO 12007KT 10SM CLR 25/08 A2990 RMK AO2
KA39 230755Z AUTO 13006KT 10SM CLR 25/07 A2990 RMK AO2
KA39 230735Z AUTO 15007KT 10SM CLR 26/07 A2991 RMK AO2
KA39 230715Z AUTO 10009KT 10SM CLR 29/04 A2990 RMK AO2
KA39 230655Z AUTO 10010KT 10SM CLR 29/04 A2990 RMK AO2
KA39 230635Z AUTO 11011KT 10SM CLR 29/04 A2990 RMK AO2
KA39 230615Z AUTO 11010KT 10SM CLR 29/04 A2989 RMK AO2
KA39 230555Z AUTO 10010KT 10SM CLR 29/05 A2989 RMK AO2
KA39 230535Z AUTO 10009KT 10SM CLR 29/05 A2989 RMK AO2
KA39 230515Z AUTO 10010KT 10SM CLR 30/05 A2989 RMK AO2
KA39 230455Z AUTO 10010KT 10SM CLR 29/06 A2988 RMK AO2
KA39 230435Z AUTO 11008KT 10SM CLR 29/07 A2988 RMK AO2
KA39 230415Z AUTO 10009KT 10SM CLR 29/08 A2989 RMK AO2
KA39 230355Z AUTO 11010KT 10SM CLR 30/08 A2989 RMK AO2
KA39 230335Z AUTO 10010KT 10SM CLR 30/08 A2989 RMK AO2
KA39 230315Z AUTO 11009KT 10SM CLR 31/09 A2988 RMK AO2
KA39 230255Z AUTO 12008KT 10SM CLR 31/09 A2988 RMK AO2
KA39 230235Z AUTO 11007KT 10SM CLR 31/09 A2987 RMK AO2
KA39 230215Z AUTO 11007KT 10SM CLR 32/09 A2987 RMK AO2
KA39 230155Z AUTO 12005KT 10SM CLR 32/09 A2987 RMK AO2
KA39 230135Z AUTO 10007KT 10SM CLR 34/08 A2987 RMK AO2
KA39 230115Z AUTO 10007KT 10SM CLR 35/08 A2987 RMK AO2
KA39 230055Z AUTO 11007KT 10SM CLR 36/07 A2987 RMK AO2
KA39 230035Z AUTO 10010KT 10SM CLR 37/07 A2987 RMK AO2
KA39 230015Z AUTO 10010G16KT 10SM CLR 37/08 A2987 RMK AO2
KA39 222355Z AUTO 08014KT 10SM CLR 37/08 A2987 RMK AO2
KA39 222335Z AUTO 08010G19KT 10SM CLR 37/08 A2987 RMK AO2
KA39 222315Z AUTO 09011G20KT 10SM CLR 38/08 A2988 RMK AO2
KA39 222255Z AUTO 10011G19KT 10SM CLR 38/08 A2988 RMK AO2
KA39 222235Z AUTO 08014KT 10SM CLR 38/08 A2989 RMK AO2
KA39 222215Z AUTO 09009G17KT 4SM HZ CLR 38/08 A2989 RMK AO2
KA39 222155Z AUTO 12009KT 7SM CLR 38/09 A2990 RMK AO2
KA39 222135Z AUTO 12011KT 7SM HZ CLR 37/10 A2991 RMK AO2
KA39 222115Z AUTO 13010KT 10SM CLR 38/10 A2992 RMK AO2
KA39 222055Z AUTO 09013G18KT 5SM HZ CLR 37/11 A2993 RMK AO2
KA39 222035Z AUTO 11015G19KT 7SM HZ CLR 37/11 A2994 RMK AO2
KA39 222015Z AUTO 08018G22KT 7SM CLR 37/11 A2995 RMK AO2
KA39 221955Z AUTO 11013KT 7SM CLR 37/13 A2996 RMK AO2
KA39 221935Z AUTO 09015KT 5SM HZ CLR 36/13 A2997 RMK AO2
KA39 221915Z AUTO 12014G17KT 7SM CLR 37/14 A2998 RMK AO2
KA39 221855Z AUTO 10009KT 10SM CLR 36/13 A2999 RMK AO2
KA39 221835Z AUTO 08007G16KT 10SM CLR 35/14 A3000 RMK AO2
KA39 221815Z AUTO 10009KT 10SM CLR 35/14 A3000 RMK AO2
KA39 221755Z AUTO 11007KT 10SM CLR 35/14 A3001 RMK AO2
KA39 221735Z AUTO 13011G15KT 10SM CLR 34/14 A3002 RMK AO2
KA39 221715Z AUTO 09013KT 10SM CLR 34/14 A3002 RMK AO2
KA39 221655Z AUTO 13010KT 10SM CLR 33/15 A3003 RMK AO2
KA39 221635Z AUTO 11009KT 10SM CLR 33/15 A3003 RMK AO2
KA39 221615Z AUTO 09006KT 10SM CLR 32/15 A3003 RMK AO2
KA39 221555Z AUTO 10007KT 10SM CLR 31/14 A3003 RMK AO2
KA39 221535Z AUTO 10005KT 10SM CLR 31/15 A3003 RMK AO2
KA39 221515Z AUTO 12005KT 10SM CLR 29/15 A3003 RMK AO2
KA39 221455Z AUTO 12007KT 10SM CLR 27/16 A3002 RMK AO2
KA39 221435Z AUTO 14005KT 10SM CLR 26/16 A3002 RMK AO2